Overview Statistics Trail Chart Weather Telemetry Raw packets
 

This is the latest recevied weather packets stored in our database for station/object DO1BDB-12. If no packets are shown the sender has not sent any weather packets the latest 10 day(s).

<< 360 361 362 363 364 365 366 >>
Time Temp. Humidity Pressure Rain* Wind** Luminosity Snow
1788078493 21.11° C 66% 100.7 hPa - - - -
1788078427 21.67° C 67% 100.7 hPa - - - -
1788078362 21.67° C 66% 100.7 hPa - - - -
1788078296 21.67° C 64% 100.7 hPa - - - -
1788078230 23.33° C 61% 100.7 hPa - - - -
1788078164 23.89° C 60% 100.7 hPa - - - -
1788078098 24.44° C 58% 100.7 hPa - - - -
1788078043 22.22° C 67% 100.7 hPa - - - -
1788077967 22.22° C 66% 100.7 hPa - - - -
1788077901 22.22° C 66% 100.7 hPa - - - -
1788077835 21.67° C 66% 100.7 hPa - - - -
1788077769 22.22° C 67% 100.7 hPa - - - -
1788077703 22.22° C 66% 100.7 hPa - - - -
1788077637 21.67° C 67% 100.7 hPa - - - -
1788077572 21.67° C 67% 100.7 hPa - - - -
1788077506 21.67° C 68% 100.7 hPa - - - -
1788077440 21.11° C 70% 100.7 hPa - - - -
1788077374 21.11° C 70% 100.7 hPa - - - -
1788077308 21.11° C 68% 100.7 hPa - - - -
1788077242 21.67° C 67% 100.7 hPa - - - -
1788077177 21.67° C 67% 100.7 hPa - - - -
1788077111 22.22° C 65% 100.7 hPa - - - -
1788077045 22.22° C 66% 100.7 hPa - - - -
1788076979 22.22° C 65% 100.7 hPa - - - -
1788076913 22.22° C 66% 100.7 hPa - - - -

* Rain since midnight (hover to see other rain measurements)
** Current wind speed in m/s (hover to see current wind gust speed)